createdAt,value
2017-04-17T00:00:18.927Z,63.70
2017-04-17T00:01:17.003Z,63.50
2017-04-17T00:02:15.123Z,64.00
2017-04-17T00:03:12.880Z,64.10
2017-04-17T00:04:10.950Z,63.90
2017-04-17T00:05:09.415Z,63.10
2017-04-17T00:06:07.468Z,63.40
2017-04-17T00:07:05.206Z,63.40
2017-04-17T00:08:03.372Z,63.00
2017-04-17T00:09:01.479Z,63.10
2017-04-17T00:09:59.581Z,63.00
2017-04-17T00:10:59.421Z,62.90
2017-04-17T00:11:57.579Z,62.60
2017-04-17T00:12:55.709Z,62.40
2017-04-17T00:13:53.795Z,61.80
2017-04-17T00:14:51.988Z,62.50
2017-04-17T00:15:50.113Z,62.50
2017-04-17T00:16:48.555Z,62.80
2017-04-17T00:17:46.655Z,62.90
2017-04-17T00:18:44.752Z,63.20
2017-04-17T00:19:43.719Z,63.40
2017-04-17T00:20:41.883Z,63.80
2017-04-17T00:21:39.972Z,63.60
2017-04-17T00:22:38.095Z,63.40
2017-04-17T00:23:36.212Z,63.40
2017-04-17T00:24:34.984Z,64.30
2017-04-17T00:25:33.132Z,64.30
2017-04-17T00:26:31.221Z,63.90
2017-04-17T00:27:29.303Z,64.10
2017-04-17T00:28:27.003Z,64.10
2017-04-17T00:29:25.061Z,64.20
2017-04-17T00:30:23.179Z,64.30
2017-04-17T00:31:20.896Z,64.30
2017-04-17T00:32:19.427Z,64.10
2017-04-17T00:33:17.518Z,63.20
2017-04-17T00:34:15.579Z,63.50
2017-04-17T00:35:13.344Z,63.50
2017-04-17T00:36:11.040Z,63.50
2017-04-17T00:37:09.190Z,63.80
2017-04-17T00:38:07.792Z,63.70
2017-04-17T00:39:05.871Z,63.40
2017-04-17T00:40:03.676Z,63.40
2017-04-17T00:41:01.735Z,63.40
2017-04-17T00:41:59.468Z,63.40
2017-04-17T00:42:57.208Z,63.10
2017-04-17T00:43:55.688Z,63.50
2017-04-17T00:44:53.766Z,63.90
2017-04-17T00:45:52.679Z,63.70
2017-04-17T00:46:50.388Z,63.80
2017-04-17T00:47:48.483Z,63.40
2017-04-17T00:48:46.556Z,63.20
2017-04-17T00:49:44.646Z,62.80
2017-04-17T00:50:42.672Z,62.80
2017-04-17T00:51:40.736Z,62.70
2017-04-17T00:52:38.819Z,62.70
2017-04-17T00:53:36.879Z,62.40
2017-04-17T00:54:34.948Z,62.20
2017-04-17T00:55:33.916Z,62.60
2017-04-17T00:56:31.980Z,62.40
2017-04-17T00:57:29.665Z,62.40
2017-04-17T00:58:27.748Z,62.90
2017-04-17T00:59:25.831Z,61.90
2017-04-17T01:00:24.332Z,62.20
2017-04-17T01:01:22.074Z,62.20
2017-04-17T01:02:20.784Z,62.70
2017-04-17T01:03:18.875Z,62.70
2017-04-17T01:04:16.952Z,62.20
2017-04-17T01:05:15.159Z,62.40
2017-04-17T01:06:13.734Z,62.40
2017-04-17T01:07:11.819Z,62.20
2017-04-17T01:08:09.955Z,62.90
2017-04-17T01:09:07.711Z,62.90
2017-04-17T01:10:05.852Z,62.80
2017-04-17T01:11:03.952Z,62.50
2017-04-17T01:12:02.096Z,62.60
2017-04-17T01:13:00.227Z,63.20
2017-04-17T01:13:58.328Z,63.10
2017-04-17T01:14:56.485Z,62.80
2017-04-17T01:15:56.612Z,63.20
2017-04-17T01:16:55.041Z,63.20
2017-04-17T01:17:53.118Z,62.40
2017-04-17T01:18:51.211Z,62.30
2017-04-17T01:19:49.300Z,62.70
2017-04-17T01:20:47.800Z,62.20
2017-04-17T01:21:45.985Z,62.90
2017-04-17T01:22:44.095Z,62.80
2017-04-17T01:23:42.216Z,62.50
2017-04-17T01:24:40.403Z,62.30
2017-04-17T01:25:38.488Z,62.00
2017-04-17T01:26:36.991Z,62.10
2017-04-17T01:27:35.342Z,62.10
2017-04-17T01:28:33.428Z,62.30
2017-04-17T01:29:31.519Z,62.60
2017-04-17T01:30:29.662Z,62.30
2017-04-17T01:31:27.694Z,62.70
2017-04-17T01:32:26.049Z,62.90
2017-04-17T01:33:24.147Z,62.50
2017-04-17T01:34:22.272Z,61.80
2017-04-17T01:35:20.379Z,62.00
2017-04-17T01:36:18.461Z,62.30
2017-04-17T01:37:16.212Z,62.30
2017-04-17T01:38:14.948Z,62.80
2017-04-17T01:39:13.034Z,62.40
2017-04-17T01:40:11.212Z,62.20
2017-04-17T01:41:10.271Z,62.00
2017-04-17T01:42:08.347Z,62.00
2017-04-17T01:43:06.700Z,62.00
2017-04-17T01:44:05.384Z,62.50
2017-04-17T01:45:03.931Z,62.80
2017-04-17T01:46:02.868Z,62.80
2017-04-17T01:47:00.615Z,62.80
2017-04-17T01:47:58.664Z,62.70
2017-04-17T01:48:56.734Z,62.80
2017-04-17T01:49:54.814Z,63.30
2017-04-17T01:50:52.943Z,63.50
2017-04-17T01:51:51.031Z,64.00
2017-04-17T01:52:49.109Z,64.10
2017-04-17T01:53:47.231Z,63.80
2017-04-17T01:54:45.318Z,63.60
2017-04-17T01:55:43.759Z,63.80
2017-04-17T01:56:41.869Z,64.00
2017-04-17T01:57:39.625Z,64.00
2017-04-17T01:58:37.728Z,64.00
2017-04-17T01:59:35.818Z,64.10
2017-04-17T02:00:34.076Z,64.60
2017-04-17T02:01:32.195Z,65.30
2017-04-17T02:02:30.695Z,65.80
2017-04-17T02:03:28.783Z,66.00
2017-04-17T02:04:26.871Z,66.40
2017-04-17T02:05:25.366Z,66.40
2017-04-17T02:06:23.453Z,66.80
2017-04-17T02:07:21.563Z,66.70
2017-04-17T02:08:19.728Z,67.30
2017-04-17T02:09:17.799Z,67.70
2017-04-17T02:10:16.341Z,67.80
2017-04-17T02:11:14.758Z,68.20
2017-04-17T02:12:12.837Z,68.70
2017-04-17T02:13:10.540Z,68.70
2017-04-17T02:14:09.595Z,69.10
2017-04-17T02:15:07.775Z,69.10
2017-04-17T02:16:07.279Z,69.10
2017-04-17T02:17:06.016Z,69.80
2017-04-17T02:18:04.106Z,70.10
2017-04-17T02:19:03.071Z,69.50
2017-04-17T02:20:01.926Z,69.60
2017-04-17T02:21:00.116Z,69.90
2017-04-17T02:21:58.194Z,70.00
2017-04-17T02:22:56.314Z,70.00
2017-04-17T02:23:55.224Z,70.50
2017-04-17T02:24:53.291Z,69.50
2017-04-17T02:25:51.667Z,69.60
2017-04-17T02:26:49.732Z,69.60
2017-04-17T02:27:47.804Z,69.80
2017-04-17T02:28:45.523Z,69.60
2017-04-17T02:29:43.631Z,68.70
2017-04-17T02:30:41.775Z,69.20
2017-04-17T02:31:40.300Z,68.20
2017-04-17T02:32:38.026Z,68.20
2017-04-17T02:33:36.108Z,69.00
2017-04-17T02:34:34.202Z,69.80
2017-04-17T02:35:32.318Z,70.30
2017-04-17T02:36:30.439Z,71.10
2017-04-17T02:37:29.515Z,70.90
2017-04-17T02:38:27.618Z,71.20
2017-04-17T02:39:25.686Z,71.10
2017-04-17T02:40:24.800Z,71.40
2017-04-17T02:41:23.427Z,71.10
2017-04-17T02:42:21.486Z,71.80
2017-04-17T02:43:19.894Z,71.90
2017-04-17T02:44:18.579Z,72.20
2017-04-17T02:45:16.376Z,72.20
2017-04-17T02:46:14.459Z,71.80
2017-04-17T02:47:12.588Z,71.80
2017-04-17T02:48:10.644Z,71.70
2017-04-17T02:49:09.749Z,71.70
2017-04-17T02:50:07.904Z,72.00
2017-04-17T02:51:07.332Z,72.20
2017-04-17T02:52:06.415Z,71.80
2017-04-17T02:53:04.563Z,72.00
2017-04-17T02:54:02.655Z,72.10
2017-04-17T02:55:00.800Z,72.10
2017-04-17T02:55:58.917Z,72.10
2017-04-17T02:56:57.577Z,72.60
2017-04-17T02:57:55.627Z,73.00
2017-04-17T02:58:53.723Z,73.10
2017-04-17T02:59:51.899Z,73.40
2017-04-17T03:00:50.079Z,72.70
2017-04-17T03:01:48.159Z,72.50
2017-04-17T03:02:46.217Z,72.60
2017-04-17T03:03:44.321Z,73.20
2017-04-17T03:04:42.386Z,73.30
2017-04-17T03:05:40.800Z,72.80
2017-04-17T03:06:38.920Z,73.00
2017-04-17T03:07:37.087Z,73.10
2017-04-17T03:08:35.132Z,73.30
2017-04-17T03:09:33.230Z,73.40
2017-04-17T03:10:31.364Z,73.40
2017-04-17T03:11:29.795Z,73.50
2017-04-17T03:12:27.539Z,73.50
2017-04-17T03:13:25.604Z,73.50
2017-04-17T03:14:23.681Z,73.30
2017-04-17T03:15:22.631Z,73.40
2017-04-17T03:16:20.861Z,73.60
2017-04-17T03:17:18.983Z,73.90
2017-04-17T03:18:17.962Z,73.90
2017-04-17T03:19:16.115Z,73.40
2017-04-17T03:20:14.601Z,73.30
2017-04-17T03:21:12.699Z,73.80
2017-04-17T03:22:10.841Z,74.10
2017-04-17T03:23:09.423Z,74.20
2017-04-17T03:24:07.500Z,74.20
2017-04-17T03:25:06.259Z,74.50
2017-04-17T03:26:04.413Z,74.50
2017-04-17T03:27:02.504Z,74.80
2017-04-17T03:28:00.570Z,75.20
2017-04-17T03:28:58.709Z,75.20
2017-04-17T03:29:57.280Z,74.70
2017-04-17T03:30:55.409Z,74.50
2017-04-17T03:31:53.804Z,74.60
2017-04-17T03:32:51.908Z,74.80
2017-04-17T03:33:50.064Z,74.70
2017-04-17T03:34:48.760Z,74.70
2017-04-17T03:35:46.915Z,74.60
2017-04-17T03:36:44.692Z,74.60
2017-04-17T03:37:42.807Z,75.10
2017-04-17T03:38:40.911Z,74.90
2017-04-17T03:39:38.975Z,74.70
2017-04-17T03:40:37.473Z,74.70
2017-04-17T03:41:35.574Z,75.20
2017-04-17T03:42:33.647Z,74.50
2017-04-17T03:43:31.691Z,75.30
2017-04-17T03:44:29.384Z,75.30
2017-04-17T03:45:27.484Z,74.90
2017-04-17T03:46:25.631Z,74.80
2017-04-17T03:47:23.696Z,74.70
2017-04-17T03:48:21.773Z,74.30
2017-04-17T03:49:19.501Z,74.40
2017-04-17T03:50:18.083Z,74.00
2017-04-17T03:51:16.156Z,73.70
2017-04-17T03:52:14.199Z,74.00
2017-04-17T03:53:11.888Z,74.00
2017-04-17T03:54:09.944Z,74.10
2017-04-17T03:55:08.103Z,73.80
2017-04-17T03:56:06.231Z,73.80
2017-04-17T03:57:05.067Z,73.60
2017-04-17T03:58:03.148Z,73.30
2017-04-17T03:59:01.307Z,73.20
2017-04-17T03:59:59.408Z,73.40
2017-04-17T04:00:57.883Z,73.70
2017-04-17T04:01:55.972Z,73.60
2017-04-17T04:02:54.014Z,73.50
2017-04-17T04:03:52.402Z,73.50
2017-04-17T04:04:50.527Z,73.60
2017-04-17T04:05:48.662Z,73.90
2017-04-17T04:06:46.750Z,74.10
2017-04-17T04:07:44.776Z,73.80
2017-04-17T04:08:43.416Z,73.80
2017-04-17T04:09:42.011Z,73.50
2017-04-17T04:10:40.788Z,73.50
2017-04-17T04:11:40.325Z,72.90
2017-04-17T04:12:38.705Z,73.00
2017-04-17T04:13:36.772Z,73.00
2017-04-17T04:14:34.559Z,73.00
2017-04-17T04:15:32.700Z,73.70
2017-04-17T04:16:30.796Z,73.60
2017-04-17T04:17:28.856Z,73.60
2017-04-17T04:18:26.941Z,73.70
2017-04-17T04:19:25.119Z,73.40
2017-04-17T04:20:23.569Z,73.20
2017-04-17T04:21:21.663Z,73.20
2017-04-17T04:22:19.885Z,73.50
2017-04-17T04:23:17.998Z,73.50
2017-04-17T04:24:16.087Z,73.00
2017-04-17T04:25:14.164Z,72.70
2017-04-17T04:26:12.597Z,72.70
2017-04-17T04:27:10.646Z,72.50
2017-04-17T04:28:09.248Z,73.30
2017-04-17T04:29:07.306Z,72.90
2017-04-17T04:30:05.387Z,73.30
2017-04-17T04:31:04.031Z,73.20
2017-04-17T04:32:02.152Z,73.40
2017-04-17T04:33:00.232Z,73.30
2017-04-17T04:33:58.264Z,73.20
2017-04-17T04:34:56.946Z,73.30
2017-04-17T04:35:56.479Z,73.70
2017-04-17T04:36:54.538Z,73.50
2017-04-17T04:37:52.582Z,73.80
2017-04-17T04:38:50.676Z,73.30
2017-04-17T04:39:48.727Z,73.20
2017-04-17T04:40:46.859Z,73.50
2017-04-17T04:41:45.284Z,73.00
2017-04-17T04:42:43.348Z,72.30
2017-04-17T04:43:41.442Z,72.70
2017-04-17T04:44:39.505Z,72.70
2017-04-17T04:45:37.603Z,72.70
2017-04-17T04:46:35.636Z,72.60
2017-04-17T04:47:33.725Z,72.80
2017-04-17T04:48:31.811Z,72.80
2017-04-17T04:49:29.904Z,73.00
2017-04-17T04:50:28.064Z,73.20
2017-04-17T04:51:27.357Z,72.70
2017-04-17T04:52:25.455Z,72.90
2017-04-17T04:53:23.878Z,72.60
2017-04-17T04:54:21.955Z,72.50
2017-04-17T04:55:20.100Z,73.50
2017-04-17T04:56:18.243Z,72.50
2017-04-17T04:57:16.358Z,72.80
2017-04-17T04:58:14.472Z,72.60
2017-04-17T04:59:12.209Z,72.60
2017-04-17T05:00:10.438Z,72.60
2017-04-17T05:01:08.535Z,72.50
2017-04-17T05:02:07.326Z,72.90
2017-04-17T05:03:06.696Z,72.80
2017-04-17T05:04:04.764Z,72.10
2017-04-17T05:05:02.923Z,72.10
2017-04-17T05:06:00.923Z,72.10
2017-04-17T05:06:58.988Z,73.00
2017-04-17T05:07:57.055Z,72.30
2017-04-17T05:08:55.139Z,71.80
2017-04-17T05:09:52.824Z,71.90
2017-04-17T05:10:51.263Z,70.70
2017-04-17T05:11:49.352Z,70.70
2017-04-17T05:12:47.440Z,70.50
2017-04-17T05:13:45.639Z,70.50
2017-04-17T05:14:43.715Z,70.10
2017-04-17T05:15:41.485Z,70.10
2017-04-17T05:16:39.559Z,70.00
2017-04-17T05:17:37.668Z,70.00
2017-04-17T05:18:36.009Z,70.00
2017-04-17T05:19:34.078Z,70.20
2017-04-17T05:20:32.211Z,70.40
2017-04-17T05:21:30.288Z,70.60
2017-04-17T05:22:28.319Z,71.30
2017-04-17T05:23:26.413Z,71.70
2017-04-17T05:24:24.496Z,71.70
2017-04-17T05:25:22.884Z,71.50
2017-04-17T05:26:20.948Z,71.10
2017-04-17T05:27:19.015Z,71.00
2017-04-17T05:28:17.067Z,71.00
2017-04-17T05:29:15.995Z,70.80
2017-04-17T05:30:13.776Z,70.80
2017-04-17T05:31:12.512Z,71.10
2017-04-17T05:32:10.580Z,71.10
2017-04-17T05:33:09.184Z,71.70
2017-04-17T05:34:06.906Z,71.70
2017-04-17T05:35:05.472Z,72.50
2017-04-17T05:36:03.527Z,72.70
2017-04-17T05:37:01.590Z,72.40
2017-04-17T05:37:59.271Z,72.40
2017-04-17T05:38:57.319Z,72.70
2017-04-17T05:39:55.440Z,73.90
2017-04-17T05:40:53.571Z,73.80
2017-04-17T05:41:51.321Z,73.80
2017-04-17T05:42:49.350Z,73.30
2017-04-17T05:43:47.946Z,72.80
2017-04-17T05:44:46.044Z,74.00
2017-04-17T05:45:44.243Z,74.00
2017-04-17T05:46:43.219Z,73.20
2017-04-17T05:47:42.237Z,73.50
2017-04-17T05:48:40.367Z,72.70
2017-04-17T05:49:38.443Z,73.00
2017-04-17T05:50:36.610Z,72.70
2017-04-17T05:51:34.728Z,72.20
2017-04-17T05:52:32.779Z,71.90
2017-04-17T05:53:31.562Z,71.90
2017-04-17T05:54:30.231Z,71.90
2017-04-17T05:55:28.347Z,71.20
2017-04-17T05:56:26.417Z,71.10
2017-04-17T05:57:24.878Z,71.00
2017-04-17T05:58:22.961Z,71.10
2017-04-17T05:59:21.016Z,71.20
2017-04-17T06:00:19.140Z,71.00
2017-04-17T06:01:17.220Z,70.70
2017-04-17T06:02:15.312Z,70.10
2017-04-17T06:03:13.409Z,70.20
2017-04-17T06:04:13.503Z,70.00
2017-04-17T06:05:11.615Z,70.10
2017-04-17T06:06:09.715Z,70.50
2017-04-17T06:07:07.859Z,70.70
2017-04-17T06:08:06.004Z,70.90
2017-04-17T06:09:04.743Z,70.60
2017-04-17T06:10:03.258Z,70.30
2017-04-17T06:11:02.171Z,69.80
2017-04-17T06:12:00.911Z,69.80
2017-04-17T06:12:58.648Z,69.80
2017-04-17T06:13:56.760Z,70.20
2017-04-17T06:14:54.856Z,71.00
2017-04-17T06:15:52.986Z,70.90
2017-04-17T06:16:51.167Z,71.50
2017-04-17T06:17:49.254Z,71.60
2017-04-17T06:18:47.739Z,71.70
2017-04-17T06:19:45.844Z,72.20
2017-04-17T06:20:44.477Z,72.10
2017-04-17T06:21:42.563Z,71.90
2017-04-17T06:22:40.721Z,71.70
2017-04-17T06:23:39.587Z,71.90
2017-04-17T06:24:37.680Z,72.30
2017-04-17T06:25:36.113Z,71.80
2017-04-17T06:26:33.789Z,71.80
2017-04-17T06:27:31.836Z,71.70
2017-04-17T06:28:30.285Z,71.30
2017-04-17T06:29:28.940Z,71.30
2017-04-17T06:30:27.021Z,71.10
2017-04-17T06:31:25.252Z,71.30
2017-04-17T06:32:23.364Z,70.90
2017-04-17T06:33:21.455Z,71.20
2017-04-17T06:34:19.514Z,71.10
2017-04-17T06:35:17.647Z,71.40
2017-04-17T06:36:15.772Z,71.40
2017-04-17T06:37:13.887Z,70.80
2017-04-17T06:38:11.950Z,71.00
2017-04-17T06:39:10.112Z,71.40
2017-04-17T06:40:07.850Z,71.40
2017-04-17T06:41:05.896Z,71.00
2017-04-17T06:42:04.002Z,71.50
2017-04-17T06:43:02.114Z,71.80
2017-04-17T06:43:59.848Z,71.80
2017-04-17T06:44:57.953Z,72.50
2017-04-17T06:45:56.530Z,72.80
2017-04-17T06:46:55.371Z,72.40
2017-04-17T06:47:53.557Z,72.50
2017-04-17T06:48:51.259Z,72.50
2017-04-17T06:49:49.405Z,72.00
2017-04-17T06:50:48.492Z,71.10
2017-04-17T06:51:46.218Z,71.10
2017-04-17T06:52:44.323Z,70.80
2017-04-17T06:53:42.399Z,71.40
2017-04-17T06:54:41.418Z,71.80
2017-04-17T06:55:39.242Z,71.80
2017-04-17T06:56:37.316Z,71.70
2017-04-17T06:57:35.408Z,71.50
2017-04-17T06:58:34.602Z,71.20
2017-04-17T06:59:32.703Z,71.60
2017-04-17T07:00:31.251Z,71.70
2017-04-17T07:01:29.340Z,71.90
2017-04-17T07:02:28.132Z,72.10
2017-04-17T07:03:26.243Z,72.10
2017-04-17T07:04:24.323Z,71.90
2017-04-17T07:05:22.426Z,71.70
2017-04-17T07:06:21.263Z,71.80
2017-04-17T07:07:19.404Z,71.40
2017-04-17T07:08:17.511Z,71.30
2017-04-17T07:09:15.623Z,71.60
2017-04-17T07:10:13.444Z,71.60
2017-04-17T07:11:11.568Z,71.60
2017-04-17T07:12:10.723Z,71.00
2017-04-17T07:13:08.784Z,71.20
2017-04-17T07:14:06.936Z,71.50
2017-04-17T07:15:05.105Z,71.10
2017-04-17T07:16:03.238Z,70.90
2017-04-17T07:17:01.339Z,70.30
2017-04-17T07:17:59.435Z,70.60
2017-04-17T07:18:57.525Z,70.70
2017-04-17T07:19:55.655Z,70.90
2017-04-17T07:20:53.896Z,70.60
2017-04-17T07:21:52.009Z,70.30
2017-04-17T07:22:50.110Z,70.00
2017-04-17T07:23:48.175Z,69.70
2017-04-17T07:24:46.290Z,69.30
2017-04-17T07:25:45.331Z,69.80
2017-04-17T07:26:43.483Z,69.40
2017-04-17T07:27:41.551Z,69.20
2017-04-17T07:28:39.736Z,69.60
2017-04-17T07:29:37.860Z,69.60
2017-04-17T07:30:36.316Z,70.00
2017-04-17T07:31:34.420Z,70.00
2017-04-17T07:32:32.492Z,69.90
2017-04-17T07:33:30.587Z,69.90
2017-04-17T07:34:29.352Z,69.40
2017-04-17T07:35:27.112Z,69.40
2017-04-17T07:36:25.240Z,69.60
2017-04-17T07:37:23.364Z,69.10
2017-04-17T07:38:22.214Z,69.10
2017-04-17T07:39:20.375Z,69.00
2017-04-17T07:40:18.541Z,68.40
2017-04-17T07:41:16.627Z,67.00
2017-04-17T07:42:15.803Z,66.70
2017-04-17T07:43:13.987Z,67.00
2017-04-17T07:44:12.068Z,66.40
2017-04-17T07:45:10.571Z,67.10
2017-04-17T07:46:09.353Z,66.80
2017-04-17T07:47:07.475Z,66.00
2017-04-17T07:48:05.541Z,65.70
2017-04-17T07:49:03.650Z,65.90
2017-04-17T07:50:01.720Z,66.00
2017-04-17T07:50:59.867Z,65.80
2017-04-17T07:51:57.940Z,66.30
2017-04-17T07:52:56.044Z,66.30
2017-04-17T07:53:54.135Z,66.70
2017-04-17T07:54:52.244Z,67.00
2017-04-17T07:55:50.368Z,66.10
2017-04-17T07:56:48.504Z,65.30
2017-04-17T07:57:46.567Z,66.00
2017-04-17T07:58:44.313Z,66.00
2017-04-17T07:59:42.418Z,65.20
2017-04-17T08:00:40.620Z,65.40
2017-04-17T08:01:38.699Z,65.20
2017-04-17T08:02:36.910Z,65.70
2017-04-17T08:03:34.685Z,65.70
2017-04-17T08:04:32.835Z,66.30
2017-04-17T08:05:32.004Z,66.20
2017-04-17T08:06:31.631Z,66.20
2017-04-17T08:07:29.716Z,65.00
2017-04-17T08:08:27.825Z,64.00
2017-04-17T08:09:25.975Z,63.90
2017-04-17T08:10:24.120Z,63.30
2017-04-17T08:11:22.702Z,64.80
2017-04-17T08:12:20.824Z,64.80
2017-04-17T08:13:18.978Z,64.80
2017-04-17T08:14:17.912Z,65.90
2017-04-17T08:15:16.124Z,66.60
2017-04-17T08:16:14.966Z,66.20
2017-04-17T08:17:13.123Z,65.60
2017-04-17T08:18:11.219Z,66.00
2017-04-17T08:19:09.311Z,66.40
2017-04-17T08:20:08.366Z,67.30
2017-04-17T08:21:06.879Z,67.10
2017-04-17T08:22:04.988Z,67.10
2017-04-17T08:23:03.010Z,66.60
2017-04-17T08:24:01.183Z,66.40
2017-04-17T08:24:59.265Z,66.10
2017-04-17T08:25:57.052Z,66.00
2017-04-17T08:26:55.132Z,65.80
2017-04-17T08:27:53.588Z,66.10
2017-04-17T08:28:51.722Z,66.40
2017-04-17T08:29:49.843Z,65.60
2017-04-17T08:30:48.343Z,65.60
2017-04-17T08:31:46.805Z,65.90
2017-04-17T08:32:44.931Z,66.60
2017-04-17T08:33:43.031Z,65.80
2017-04-17T08:34:41.124Z,66.40
2017-04-17T08:35:39.305Z,65.80
2017-04-17T08:36:37.448Z,65.90
2017-04-17T08:37:35.533Z,65.50
2017-04-17T08:38:33.661Z,65.20
2017-04-17T08:39:31.810Z,65.40
2017-04-17T08:40:30.013Z,65.30
2017-04-17T08:41:28.427Z,65.00
2017-04-17T08:42:26.972Z,66.00
2017-04-17T08:43:25.123Z,66.00
2017-04-17T08:44:23.989Z,65.80
2017-04-17T08:45:22.177Z,66.20
2017-04-17T08:46:20.325Z,66.30
2017-04-17T08:47:18.777Z,66.40
2017-04-17T08:48:16.972Z,66.70
2017-04-17T08:49:15.431Z,66.40
2017-04-17T08:50:13.671Z,66.20
2017-04-17T08:51:11.836Z,66.20
2017-04-17T08:52:09.988Z,66.00
2017-04-17T08:53:08.139Z,66.30
2017-04-17T08:54:06.288Z,66.80
2017-04-17T08:55:04.495Z,67.30
2017-04-17T08:56:02.620Z,67.90
2017-04-17T08:57:00.764Z,68.10
2017-04-17T08:58:01.051Z,67.70
2017-04-17T08:59:00.213Z,67.80
2017-04-17T08:59:58.371Z,67.80
2017-04-17T09:00:56.899Z,67.20
2017-04-17T09:01:55.027Z,67.40
2017-04-17T09:02:53.171Z,67.80
2017-04-17T09:03:51.305Z,67.50
2017-04-17T09:04:49.719Z,67.40
2017-04-17T09:05:47.960Z,67.90
2017-04-17T09:06:46.140Z,67.80
2017-04-17T09:07:44.266Z,67.90
2017-04-17T09:08:42.359Z,67.80
2017-04-17T09:09:40.455Z,67.30
2017-04-17T09:10:38.883Z,67.60
2017-04-17T09:11:37.338Z,68.00
2017-04-17T09:12:35.520Z,66.70
2017-04-17T09:13:33.628Z,67.00
2017-04-17T09:14:31.677Z,65.80
2017-04-17T09:15:29.835Z,67.00
2017-04-17T09:16:28.635Z,66.70
2017-04-17T09:17:26.712Z,67.00
2017-04-17T09:18:24.900Z,66.20
2017-04-17T09:19:23.032Z,67.40
2017-04-17T09:20:22.438Z,67.70
2017-04-17T09:21:20.595Z,66.90
2017-04-17T09:22:18.760Z,66.80
2017-04-17T09:23:16.919Z,67.80
2017-04-17T09:24:15.064Z,67.50
2017-04-17T09:25:13.452Z,67.90
2017-04-17T09:26:11.580Z,67.60
2017-04-17T09:27:09.767Z,67.80
2017-04-17T09:28:07.500Z,67.80
2017-04-17T09:29:05.699Z,69.50
2017-04-17T09:30:03.796Z,69.50
2017-04-17T09:31:01.879Z,68.80
2017-04-17T09:32:00.015Z,68.80
2017-04-17T09:32:58.163Z,69.40
2017-04-17T09:33:56.481Z,69.80
2017-04-17T09:34:54.608Z,69.90
2017-04-17T09:35:53.165Z,69.80
2017-04-17T09:36:51.297Z,68.80
2017-04-17T09:37:49.374Z,69.70
2017-04-17T09:38:47.484Z,69.70
2017-04-17T09:39:45.602Z,69.90
2017-04-17T09:40:43.764Z,69.50
2017-04-17T09:41:42.283Z,69.90
2017-04-17T09:42:40.481Z,70.50
2017-04-17T09:43:39.244Z,70.50
2017-04-17T09:44:37.426Z,71.30
2017-04-17T09:45:35.624Z,71.20
2017-04-17T09:46:33.795Z,71.00
2017-04-17T09:47:32.363Z,71.00
2017-04-17T09:48:31.128Z,72.10
2017-04-17T09:49:29.193Z,71.30
2017-04-17T09:50:27.659Z,70.80
2017-04-17T09:51:26.404Z,70.40
2017-04-17T09:52:24.541Z,70.50
2017-04-17T09:53:22.664Z,69.40
2017-04-17T09:54:21.345Z,69.60
2017-04-17T09:55:19.580Z,70.70
2017-04-17T09:56:17.760Z,70.40
2017-04-17T09:57:15.886Z,69.70
2017-04-17T09:58:14.009Z,69.90
2017-04-17T09:59:12.704Z,69.40
2017-04-17T10:00:10.910Z,68.90
2017-04-17T10:01:09.117Z,69.70
2017-04-17T10:02:08.288Z,69.00
2017-04-17T10:03:07.337Z,69.20
2017-04-17T10:04:05.595Z,68.50
2017-04-17T10:05:03.795Z,68.80
2017-04-17T10:06:01.988Z,69.10
2017-04-17T10:07:00.119Z,68.50
2017-04-17T10:07:58.696Z,68.30
2017-04-17T10:08:56.816Z,67.60
2017-04-17T10:09:54.936Z,67.90
2017-04-17T10:10:53.079Z,68.30
2017-04-17T10:11:51.196Z,68.30
2017-04-17T10:12:49.419Z,68.60
2017-04-17T10:13:47.545Z,68.30
2017-04-17T10:14:45.679Z,68.20
2017-04-17T10:15:43.807Z,68.20
2017-04-17T10:16:41.895Z,67.80
2017-04-17T10:17:40.056Z,67.20
2017-04-17T10:18:38.309Z,66.70
2017-04-17T10:19:36.512Z,66.90
2017-04-17T10:20:34.705Z,67.30
2017-04-17T10:21:33.802Z,68.00
2017-04-17T10:22:31.880Z,66.90
2017-04-17T10:23:29.999Z,66.80
2017-04-17T10:24:28.655Z,67.10
2017-04-17T10:25:26.909Z,67.10
2017-04-17T10:26:25.527Z,67.80
2017-04-17T10:27:23.660Z,68.30
2017-04-17T10:28:21.767Z,67.50
2017-04-17T10:29:19.956Z,67.30
2017-04-17T10:30:18.586Z,67.20
2017-04-17T10:31:16.776Z,68.00
2017-04-17T10:32:14.979Z,67.10
2017-04-17T10:33:13.099Z,68.50
2017-04-17T10:34:11.182Z,67.10
2017-04-17T10:35:09.428Z,67.30
2017-04-17T10:36:08.531Z,68.00
2017-04-17T10:37:06.924Z,68.00
2017-04-17T10:38:05.067Z,69.00
2017-04-17T10:39:03.448Z,70.00
2017-04-17T10:40:05.588Z,69.60
2017-04-17T10:41:04.419Z,69.70
2017-04-17T10:42:03.116Z,68.70
2017-04-17T10:43:01.237Z,68.60
2017-04-17T10:43:59.315Z,69.10
2017-04-17T10:44:57.425Z,69.30
2017-04-17T10:45:55.881Z,69.80
2017-04-17T10:46:54.054Z,69.80
2017-04-17T10:47:52.168Z,69.60
2017-04-17T10:48:50.231Z,69.20
2017-04-17T10:49:48.330Z,69.30
2017-04-17T10:50:46.539Z,69.40
2017-04-17T10:51:44.928Z,69.60
2017-04-17T10:52:43.073Z,68.40
2017-04-17T10:53:41.256Z,68.30
2017-04-17T10:54:40.523Z,68.30
2017-04-17T10:55:39.630Z,67.50
2017-04-17T10:56:37.684Z,67.90
2017-04-17T10:57:36.413Z,67.90
2017-04-17T10:58:34.509Z,68.50
2017-04-17T10:59:32.611Z,68.70
2017-04-17T11:00:31.467Z,67.30
2017-04-17T11:01:29.630Z,67.00
2017-04-17T11:02:28.487Z,67.10
2017-04-17T11:03:26.583Z,67.50
2017-04-17T11:04:24.258Z,67.50
2017-04-17T11:05:23.100Z,67.80
2017-04-17T11:06:21.209Z,68.40
2017-04-17T11:07:19.348Z,68.10
2017-04-17T11:08:17.421Z,68.00
2017-04-17T11:09:15.561Z,68.50
2017-04-17T11:10:15.096Z,68.80
2017-04-17T11:11:13.200Z,69.00
2017-04-17T11:12:11.251Z,67.10
2017-04-17T11:13:09.401Z,67.40
2017-04-17T11:14:07.529Z,67.90
2017-04-17T11:15:05.706Z,67.10
2017-04-17T11:16:04.291Z,67.20
2017-04-17T11:17:02.393Z,66.60
2017-04-17T11:18:00.123Z,66.60
2017-04-17T11:18:58.197Z,67.00
2017-04-17T11:19:56.280Z,66.70
2017-04-17T11:20:54.440Z,67.00
2017-04-17T11:21:52.995Z,67.90
2017-04-17T11:22:51.111Z,67.20
2017-04-17T11:23:49.188Z,66.00
2017-04-17T11:24:47.318Z,64.80
2017-04-17T11:25:45.571Z,65.60
2017-04-17T11:26:43.669Z,66.00
2017-04-17T11:27:41.750Z,63.90
2017-04-17T11:28:39.896Z,65.20
2017-04-17T11:29:38.009Z,64.10
2017-04-17T11:30:36.205Z,62.80
2017-04-17T11:31:34.363Z,63.20
2017-04-17T11:32:32.485Z,63.40
2017-04-17T11:33:31.003Z,63.40
2017-04-17T11:34:29.123Z,62.50
2017-04-17T11:35:27.277Z,62.00
2017-04-17T11:36:26.323Z,61.10
2017-04-17T11:37:24.484Z,59.60
2017-04-17T11:38:23.586Z,56.80
2017-04-17T11:39:22.028Z,55.90
2017-04-17T11:40:19.864Z,55.90
2017-04-17T11:41:18.009Z,53.80
2017-04-17T11:42:15.861Z,53.90
2017-04-17T11:43:13.971Z,52.70
2017-04-17T11:44:12.122Z,52.20
2017-04-17T11:45:10.993Z,50.90
2017-04-17T11:46:09.172Z,50.70
2017-04-17T11:47:07.248Z,50.40
2017-04-17T11:48:05.411Z,50.50
2017-04-17T11:49:03.615Z,51.50
2017-04-17T11:50:02.283Z,51.50
2017-04-17T11:51:00.492Z,51.70
2017-04-17T11:51:58.750Z,52.60
2017-04-17T11:52:56.913Z,53.90
2017-04-17T11:53:55.074Z,54.10
2017-04-17T11:54:54.322Z,55.00
2017-04-17T11:55:52.516Z,54.50
2017-04-17T11:56:50.736Z,55.90
2017-04-17T11:57:49.404Z,56.60
2017-04-17T11:58:47.467Z,56.60
2017-04-17T11:59:45.597Z,55.80
2017-04-17T12:00:43.837Z,57.30
2017-04-17T12:01:41.695Z,57.30
2017-04-17T12:02:39.862Z,56.90
2017-04-17T12:03:38.019Z,57.70
2017-04-17T12:04:36.666Z,58.10
2017-04-17T12:05:34.925Z,58.10
2017-04-17T12:06:32.698Z,58.10
2017-04-17T12:07:30.959Z,58.10
2017-04-17T12:08:29.857Z,58.90
2017-04-17T12:09:28.134Z,59.10
2017-04-17T12:10:26.773Z,59.50
2017-04-17T12:11:25.020Z,59.80
2017-04-17T12:12:23.243Z,59.30
2017-04-17T12:13:21.484Z,59.60
2017-04-17T12:14:20.043Z,60.30
2017-04-17T12:15:19.864Z,60.40
2017-04-17T12:16:18.643Z,60.50
2017-04-17T12:17:16.520Z,60.30
2017-04-17T12:18:14.640Z,60.10
2017-04-17T12:19:12.743Z,59.80
2017-04-17T12:20:11.015Z,59.30
2017-04-17T12:21:09.191Z,59.40
2017-04-17T12:22:07.395Z,60.30
2017-04-17T12:23:05.522Z,60.90
2017-04-17T12:24:03.779Z,60.60
2017-04-17T12:25:02.272Z,60.90
2017-04-17T12:26:00.600Z,60.90
2017-04-17T12:26:58.856Z,62.90
2017-04-17T12:27:56.970Z,63.70
2017-04-17T12:28:55.624Z,65.30
2017-04-17T12:29:53.851Z,65.30